Time;durP1;ratioP1;P1;durP2;ratioP2;P2;SDS_P1;SDS_P2;PMS_P1;PMS_P2;Temp;Humidity;BMP_temperature;BMP_pressure;BME280_temperature;BME280_humidity;BME280_pressure;Samples;Min_cycle;Max_cycle;Signal;HPM_P1;HPM_P2
2023/04/25 00:01:35;;;;;;;;;;;10.80;55.90;;;6.10;96.75;94989.66;4974169;28;20013;-48
2023/04/25 00:04:02;;;;;;;;;;;10.80;55.90;;;6.08;97.31;94981.97;4965788;28;19910;-48
2023/04/25 00:06:29;;;;;;;;;;;10.80;56.00;;;6.05;97.91;94985.13;4974193;28;19916;-51
2023/04/25 00:08:56;;;;;;;;;;;10.80;56.00;;;6.09;97.86;94994.16;4957195;28;19909;-53
2023/04/25 00:11:23;;;;;;;;;;;10.80;56.00;;;6.07;97.58;94996.22;4973717;28;20053;-50
2023/04/25 00:13:52;;;;;;;;;;;10.80;56.10;;;6.08;96.85;94991.72;4973967;28;20011;-49
2023/04/25 00:16:18;;;;;;;;;;;10.70;56.10;;;5.98;96.40;94987.94;4973053;28;19910;-50
2023/04/25 00:18:46;;;;;;;;;;;10.70;56.10;;;5.99;97.73;94986.91;4973649;28;20260;-49
2023/04/25 00:21:12;;;;;;;;;;;10.80;56.10;;;5.98;98.07;94980.00;4973205;28;19967;-49
2023/04/25 00:23:38;;;;;;;;;;;10.70;56.10;;;5.97;97.66;94972.34;4973687;28;19917;-50
2023/04/25 00:26:04;;;;;;;;;;;10.70;56.20;;;5.92;97.40;94980.19;4973938;28;19910;-49
2023/04/25 00:28:30;;;;;;;;;;;10.60;56.20;;;5.88;96.73;94985.19;4973089;28;20280;-53
2023/04/25 00:30:56;;;;;;;;;;;10.60;56.20;;;5.82;96.99;94983.53;4973791;28;19918;-49
2023/04/25 00:33:21;;;;;;;;;;;10.50;56.20;;;5.79;96.86;94982.19;4974998;28;19910;-49
2023/04/25 00:35:47;;;;;;;;;;;10.50;56.20;;;5.75;96.35;94975.00;4993226;28;19909;-48
2023/04/25 00:38:13;;;;;;;;;;;10.50;56.20;;;5.67;96.08;94978.91;4992955;28;20376;-49
2023/04/25 00:40:39;;;;;;;;;;;10.40;56.20;;;5.60;95.08;94973.00;4977887;28;19946;-50
2023/04/25 00:43:05;;;;;;;;;;;10.30;56.30;;;5.56;94.90;94971.91;4973340;28;19921;-49
2023/04/25 00:45:31;;;;;;;;;;;10.30;56.30;;;5.53;94.21;94973.19;4972353;28;19910;-51
2023/04/25 00:47:57;;;;;;;;;;;10.20;56.30;;;5.51;94.76;94979.75;4973346;28;19916;-49
2023/04/25 00:50:24;;;;;;;;;;;10.20;56.40;;;5.48;94.30;94982.88;4973355;28;19929;-49
2023/04/25 00:52:51;;;;;;;;;;;10.20;56.60;;;5.46;94.07;94979.72;4967062;28;19910;-52
2023/04/25 00:55:17;;;;;;;;;;;10.10;56.50;;;5.38;93.78;94980.94;4954082;28;19910;-51
2023/04/25 00:57:43;;;;;;;;;;;10.10;56.50;;;5.30;93.98;94978.75;4959283;28;19956;-49
2023/04/25 01:00:10;;;;;;;;;;;10.10;56.50;;;5.24;93.85;94983.16;4973086;28;20312;-50
2023/04/25 01:02:37;;;;;;;;;;;10.00;56.50;;;5.19;93.73;94987.56;4973039;28;19918;-52
2023/04/25 01:05:04;;;;;;;;;;;9.90;56.50;;;5.15;94.20;94975.91;4972176;28;19913;-54
2023/04/25 01:07:30;;;;;;;;;;;9.90;56.60;;;5.10;93.95;94979.25;4972008;28;20246;-51
2023/04/25 01:09:56;;;;;;;;;;;9.90;56.60;;;5.07;93.74;94983.19;4979378;28;19910;-52
2023/04/25 01:12:23;;;;;;;;;;;9.90;56.70;;;5.05;93.50;94984.50;4992213;28;19917;-52
2023/04/25 01:14:49;;;;;;;;;;;9.80;56.60;;;5.00;93.15;94987.84;4992208;28;19909;-51
2023/04/25 01:17:18;;;;;;;;;;;9.80;56.70;;;4.97;92.55;94976.97;4973177;28;19914;-50
2023/04/25 01:19:45;;;;;;;;;;;9.70;56.70;;;5.00;92.10;94971.22;4955505;28;19920;-51
2023/04/25 01:22:11;;;;;;;;;;;9.70;56.70;;;5.04;91.42;94969.69;4972109;28;19914;-51
2023/04/25 01:24:38;;;;;;;;;;;9.70;56.70;;;5.05;90.93;94961.53;4972930;28;19917;-51
2023/04/25 01:27:04;;;;;;;;;;;9.60;57.00;;;5.06;91.14;94964.97;4967085;28;20007;-49
2023/04/25 01:29:32;;;;;;;;;;;9.60;56.80;;;5.03;90.81;94965.44;4953660;28;19910;-49
2023/04/25 01:31:58;;;;;;;;;;;9.60;56.80;;;5.00;90.62;94960.66;4972845;28;19913;-49
2023/04/25 01:34:25;;;;;;;;;;;9.60;56.80;;;4.97;90.99;94964.59;4962858;28;19959;-49
2023/04/25 01:36:52;;;;;;;;;;;9.60;56.80;;;4.95;90.87;94964.03;4972725;28;19909;-50
2023/04/25 01:39:19;;;;;;;;;;;9.60;56.80;;;4.97;91.04;94958.50;4972189;28;20009;-49
2023/04/25 01:41:47;;;;;;;;;;;9.70;56.80;;;4.98;91.04;94957.44;4972660;28;19913;-49
2023/04/25 01:44:13;;;;;;;;;;;9.70;56.80;;;5.00;91.26;94952.75;4973023;28;20253;-50
2023/04/25 01:46:40;;;;;;;;;;;9.70;56.80;;;5.00;91.47;94958.81;4971877;28;19910;-50
2023/04/25 01:49:05;;;;;;;;;;;9.70;56.80;;;4.98;91.68;94958.28;4972923;28;20012;-49
2023/04/25 01:51:32;;;;;;;;;;;9.80;56.80;;;4.99;91.81;94954.59;4971948;28;20012;-50
2023/04/25 01:53:58;;;;;;;;;;;9.80;56.80;;;4.98;91.76;94957.44;4972646;28;20004;-49
2023/04/25 01:56:24;;;;;;;;;;;9.80;56.80;;;4.95;91.69;94953.50;4972409;28;19910;-50
2023/04/25 01:58:51;;;;;;;;;;;9.80;56.80;;;4.93;91.78;94952.91;4971721;28;20387;-49
2023/04/25 02:01:17;;;;;;;;;;;9.80;56.70;;;4.91;91.75;94951.56;4955243;28;19914;-49
2023/04/25 02:03:43;;;;;;;;;;;9.70;56.70;;;4.86;92.89;94953.09;4971774;28;19914;-51
2023/04/25 02:06:09;;;;;;;;;;;9.70;56.60;;;4.79;93.55;94949.81;4972769;28;20391;-51
2023/04/25 02:08:37;;;;;;;;;;;9.60;56.50;;;4.69;95.38;94947.03;4972793;28;19910;-49
2023/04/25 02:11:03;;;;;;;;;;;9.60;56.50;;;4.61;95.17;94937.72;4971291;28;19972;-48
2023/04/25 02:13:28;;;;;;;;;;;9.50;56.50;;;4.42;96.94;94944.31;4972277;28;20454;-50
2023/04/25 02:15:54;;;;;;;;;;;9.40;56.50;;;4.35;97.64;94949.72;4971610;28;19914;-51
2023/04/25 02:18:20;;;;;;;;;;;9.30;56.60;;;4.33;97.21;94946.53;4972582;28;19909;-50
2023/04/25 02:20:47;;;;;;;;;;;9.20;56.70;;;4.25;96.31;94944.28;4972687;28;19913;-51
2023/04/25 02:23:15;;;;;;;;;;;9.10;56.70;;;4.06;97.17;94953.47;4962886;28;19925;-52
2023/04/25 02:25:41;;;;;;;;;;;9.00;56.80;;;3.99;97.57;94945.72;4952961;29;19979;-49
2023/04/25 02:28:07;;;;;;;;;;;8.90;56.80;;;3.94;97.75;94949.06;4952522;28;19910;-49
2023/04/25 02:30:32;;;;;;;;;;;8.80;56.80;;;3.87;97.76;94943.16;4971399;28;20150;-48
2023/04/25 02:32:59;;;;;;;;;;;8.70;56.90;;;3.76;97.74;94941.41;4972526;28;20282;-52
2023/04/25 02:35:24;;;;;;;;;;;8.60;57.00;;;3.63;99.05;94936.41;4972041;28;19913;-50
2023/04/25 02:37:50;;;;;;;;;;;8.50;57.00;;;3.56;99.51;94938.38;4973602;28;20292;-50
2023/04/25 02:40:16;;;;;;;;;;;8.40;57.10;;;3.51;99.00;94938.28;4974874;28;19909;-51
2023/04/25 02:42:42;;;;;;;;;;;8.40;57.20;;;3.36;100.00;94934.34;4975343;28;19914;-51
2023/04/25 02:45:08;;;;;;;;;;;8.30;57.20;;;3.36;100.00;94942.25;4975256;28;19913;-53
2023/04/25 02:47:34;;;;;;;;;;;8.20;57.30;;;3.34;100.00;94936.41;4974343;28;20315;-50
2023/04/25 02:50:00;;;;;;;;;;;8.10;57.40;;;3.31;100.00;94939.50;4975585;28;19916;-51
2023/04/25 02:52:25;;;;;;;;;;;8.10;57.50;;;3.26;100.00;94926.28;4974588;28;19917;-50
2023/04/25 02:54:51;;;;;;;;;;;8.00;57.60;;;3.22;100.00;94933.81;4975310;28;19910;-53
2023/04/25 02:57:17;;;;;;;;;;;8.00;57.70;;;3.18;100.00;94931.91;4976224;28;20024;-55
2023/04/25 02:59:43;;;;;;;;;;;8.00;57.80;;;3.15;100.00;94930.53;4983167;28;19921;-53
2023/04/25 03:02:09;;;;;;;;;;;7.90;57.80;;;3.13;100.00;94921.25;4975137;28;19968;-53
2023/04/25 03:04:35;;;;;;;;;;;7.90;57.90;;;3.10;100.00;94924.34;4974651;28;20335;-53
2023/04/25 03:07:00;;;;;;;;;;;7.90;58.00;;;3.09;100.00;94914.88;4975358;28;19910;-51
2023/04/25 03:09:26;;;;;;;;;;;7.90;58.00;;;3.08;100.00;94924.59;4974312;28;19914;-56
2023/04/25 03:11:52;;;;;;;;;;;7.80;58.00;;;3.08;100.00;94916.72;4975127;28;19910;-54
2023/04/25 03:14:18;;;;;;;;;;;7.80;58.10;;;3.07;100.00;94915.13;4974913;28;19976;-50
2023/04/25 03:16:44;;;;;;;;;;;7.80;58.10;;;3.03;100.00;94913.16;4987289;28;20360;-53
2023/04/25 03:19:10;;;;;;;;;;;7.80;58.20;;;2.96;100.00;94908.84;4994716;28;19913;-56
2023/04/25 03:21:36;;;;;;;;;;;7.70;58.10;;;2.92;100.00;94917.44;4993408;28;19967;-56
2023/04/25 03:24:04;;;;;;;;;;;7.70;58.20;;;2.84;100.00;94915.16;4994250;28;19910;-57
2023/04/25 03:26:30;;;;;;;;;;;7.60;58.20;;;2.80;100.00;94911.41;4994269;28;19909;-57
2023/04/25 03:28:56;;;;;;;;;;;7.60;58.30;;;2.79;100.00;94913.25;4977673;28;19928;-54
2023/04/25 03:31:22;;;;;;;;;;;7.60;58.30;;;2.74;100.00;94911.28;4975173;28;19953;-56
2023/04/25 03:33:48;;;;;;;;;;;7.50;58.90;;;2.66;100.00;94914.25;4973913;28;19910;-56
2023/04/25 03:36:14;;;;;;;;;;;7.50;58.30;;;2.61;100.00;94913.38;4974794;28;19984;-55
2023/04/25 03:38:41;;;;;;;;;;;7.40;58.30;;;2.57;100.00;94907.78;4974508;28;19914;-55
2023/04/25 03:41:08;;;;;;;;;;;7.40;58.40;;;2.52;100.00;94905.03;4973885;28;19913;-56
2023/04/25 03:43:33;;;;;;;;;;;7.40;58.60;;;2.48;100.00;94907.34;4974521;28;19918;-54
2023/04/25 03:46:00;;;;;;;;;;;7.30;58.60;;;2.44;100.00;94900.91;4973412;28;19909;-55
2023/04/25 03:48:26;;;;;;;;;;;7.30;58.70;;;2.38;100.00;94901.81;4974437;28;19913;-55
2023/04/25 03:50:54;;;;;;;;;;;7.20;58.70;;;2.34;100.00;94903.31;4973939;28;19910;-55
2023/04/25 03:53:20;;;;;;;;;;;7.20;58.80;;;2.27;100.00;94900.81;4974029;28;19910;-52
2023/04/25 03:55:45;;;;;;;;;;;7.10;58.80;;;2.25;100.00;94896.81;4956718;28;20386;-55
2023/04/25 03:58:11;;;;;;;;;;;7.10;58.80;;;2.23;100.00;94901.53;4973426;28;20011;-56
2023/04/25 04:00:37;;;;;;;;;;;7.10;58.90;;;2.23;100.00;94899.69;4968728;28;20357;-52
2023/04/25 04:03:05;;;;;;;;;;;7.10;59.00;;;2.21;100.00;94901.72;4971149;28;28211;-55
2023/04/25 04:05:30;;;;;;;;;;;7.10;59.10;;;2.22;100.00;94895.44;4973566;28;19953;-55
2023/04/25 04:07:56;;;;;;;;;;;7.10;59.20;;;2.25;100.00;94902.06;4973918;28;20365;-56
2023/04/25 04:10:23;;;;;;;;;;;7.10;59.20;;;2.26;100.00;94901.84;4973074;28;19956;-54
2023/04/25 04:12:49;;;;;;;;;;;7.10;59.30;;;2.27;100.00;94905.28;4973614;28;19940;-55
2023/04/25 04:15:15;;;;;;;;;;;7.10;59.30;;;2.26;100.00;94903.69;4973347;28;19914;-51
2023/04/25 04:17:41;;;;;;;;;;;7.10;59.30;;;2.27;100.00;94903.44;4974007;28;19971;-52
2023/04/25 04:20:08;;;;;;;;;;;7.00;59.30;;;2.28;100.00;94905.03;4973727;28;20005;-52
2023/04/25 04:22:34;;;;;;;;;;;7.00;59.40;;;2.30;100.00;94902.19;4973084;28;20387;-52
2023/04/25 04:25:00;;;;;;;;;;;7.10;59.40;;;2.31;100.00;94895.91;4973918;28;19909;-53
2023/04/25 04:27:26;;;;;;;;;;;7.10;59.40;;;2.34;100.00;94892.00;4973088;28;19913;-56
2023/04/25 04:29:53;;;;;;;;;;;7.10;59.40;;;2.35;100.00;94891.81;4961081;28;19964;-51
2023/04/25 04:32:19;;;;;;;;;;;7.10;59.40;;;2.35;100.00;94885.72;4954313;28;19910;-51
2023/04/25 04:34:44;;;;;;;;;;;7.10;59.50;;;2.34;100.00;94882.28;4979440;28;19932;-56
2023/04/25 04:37:12;;;;;;;;;;;7.20;59.60;;;2.35;100.00;94881.28;4973476;28;20335;-54
2023/04/25 04:39:38;;;;;;;;;;;7.20;59.50;;;2.36;100.00;94888.13;4972921;28;19914;-55
2023/04/25 04:42:05;;;;;;;;;;;7.20;59.50;;;2.38;100.00;94883.44;4973535;28;20274;-52
2023/04/25 04:44:35;;;;;;;;;;;7.20;59.60;;;2.38;100.00;94886.06;4973534;28;20280;-52
2023/04/25 04:47:01;;;;;;;;;;;7.20;59.50;;;2.41;100.00;94882.97;4987728;28;20000;-50
2023/04/25 04:49:27;;;;;;;;;;;7.20;59.50;;;2.41;100.00;94882.16;4992561;28;19909;-50
2023/04/25 04:51:54;;;;;;;;;;;7.30;59.50;;;2.44;100.00;94885.13;4985203;28;20296;-55
2023/04/25 04:54:20;;;;;;;;;;;7.30;59.60;;;2.51;100.00;94885.84;4973225;28;20339;-54
2023/04/25 04:56:46;;;;;;;;;;;7.30;59.60;;;2.58;100.00;94887.53;4973061;28;19955;-51
2023/04/25 04:59:11;;;;;;;;;;;7.40;59.60;;;2.62;100.00;94884.22;4972346;28;19909;-53
2023/04/25 05:01:37;;;;;;;;;;;7.40;59.60;;;2.65;100.00;94889.00;4972284;28;19914;-56
2023/04/25 05:04:04;;;;;;;;;;;7.40;59.60;;;2.71;100.00;94887.28;4979288;28;19991;-53
2023/04/25 05:06:31;;;;;;;;;;;7.50;59.60;;;2.83;100.00;94884.63;4992414;28;19917;-55
2023/04/25 05:08:57;;;;;;;;;;;7.60;59.70;;;2.90;100.00;94880.03;4992262;28;20008;-52
2023/04/25 05:11:26;;;;;;;;;;;7.70;59.80;;;2.96;100.00;94890.41;4972446;28;20364;-52
2023/04/25 05:13:53;;;;;;;;;;;7.80;59.80;;;3.00;100.00;94881.03;4971832;28;20012;-55
2023/04/25 05:16:19;;;;;;;;;;;7.90;59.70;;;3.06;100.00;94883.75;4972247;28;19914;-52
2023/04/25 05:18:46;;;;;;;;;;;8.00;59.70;;;3.09;100.00;94878.81;4972788;28;19923;-55
2023/04/25 05:21:12;;;;;;;;;;;8.10;59.70;;;3.21;100.00;94881.41;4971926;28;19914;-53
2023/04/25 05:23:38;;;;;;;;;;;8.20;59.60;;;3.43;100.00;94884.19;4972828;28;19913;-53
2023/04/25 05:26:03;;;;;;;;;;;8.40;60.40;;;3.65;100.00;94886.94;4972957;28;19910;-53
2023/04/25 05:28:29;;;;;;;;;;;8.60;59.60;;;3.83;100.00;94885.91;4971939;28;19933;-52
2023/04/25 05:30:56;;;;;;;;;;;8.90;59.70;;;3.93;100.00;94883.44;4972706;28;20391;-53
2023/04/25 05:33:22;;;;;;;;;;;9.00;59.60;;;4.09;100.00;94879.19;4971793;28;19922;-51
2023/04/25 05:35:49;;;;;;;;;;;9.10;59.60;;;4.25;100.00;94885.50;4972745;28;20335;-50
2023/04/25 05:38:14;;;;;;;;;;;9.40;59.50;;;4.41;100.00;94882.03;4972824;28;20318;-52
2023/04/25 05:40:40;;;;;;;;;;;9.60;59.40;;;4.57;100.00;94883.84;4977131;28;19910;-52
2023/04/25 05:43:07;;;;;;;;;;;9.80;59.40;;;4.74;100.00;94891.72;4971292;28;19913;-54
2023/04/25 05:45:32;;;;;;;;;;;10.00;59.30;;;4.92;100.00;94889.81;4971837;28;19917;-53
2023/04/25 05:47:58;;;;;;;;;;;10.10;59.20;;;5.07;100.00;94888.16;4972589;28;20385;-54
2023/04/25 05:50:24;;;;;;;;;;;10.30;59.20;;;5.20;100.00;94891.44;4972561;28;19910;-53
2023/04/25 05:52:50;;;;;;;;;;;10.40;59.20;;;5.34;100.00;94887.41;4971952;28;20339;-53
2023/04/25 05:55:16;;;;;;;;;;;10.50;59.00;;;5.39;97.92;94884.81;4972806;28;19909;-52
2023/04/25 05:57:44;;;;;;;;;;;10.80;59.00;;;5.54;96.89;94881.50;4971635;28;20387;-50
2023/04/25 06:00:13;;;;;;;;;;;11.00;58.80;;;5.70;97.14;94888.56;4957350;28;19964;-51
2023/04/25 06:02:38;;;;;;;;;;;11.20;58.60;;;5.89;96.35;94878.41;4952808;28;19914;-50
2023/04/25 06:05:05;;;;;;;;;;;11.40;58.50;;;6.07;95.84;94879.88;4967668;28;20372;-52
2023/04/25 06:07:30;;;;;;;;;;;11.60;58.40;;;6.17;94.52;94885.28;4972148;28;20093;-52
2023/04/25 06:09:57;;;;;;;;;;;11.70;58.30;;;6.27;90.45;94889.84;4971626;28;20008;-55
2023/04/25 06:12:22;;;;;;;;;;;11.70;58.20;;;6.39;89.39;94887.00;4972847;28;19918;-55
2023/04/25 06:14:48;;;;;;;;;;;11.80;58.10;;;6.48;87.09;94894.19;4975902;28;19921;-51
2023/04/25 06:17:14;;;;;;;;;;;11.80;58.00;;;6.58;86.01;94896.13;4975183;28;19909;-51
2023/04/25 06:19:40;;;;;;;;;;;11.90;57.90;;;6.64;86.03;94895.09;5005031;23;20474;-50
2023/04/25 06:22:07;;;;;;;;;;;11.90;57.80;;;6.67;85.24;94899.84;5001230;28;19917;-51
2023/04/25 06:24:33;;;;;;;;;;;11.90;57.70;;;6.72;84.69;94899.91;5014802;28;20015;-50
2023/04/25 06:26:59;;;;;;;;;;;11.90;57.70;;;6.73;84.30;94903.34;5015282;28;20284;-53
2023/04/25 06:29:25;;;;;;;;;;;11.80;57.60;;;6.72;83.77;94907.84;4986526;28;19971;-53
2023/04/25 06:31:52;;;;;;;;;;;11.80;57.50;;;6.67;83.80;94912.28;4975518;28;20364;-54
2023/04/25 06:34:17;;;;;;;;;;;11.80;57.50;;;6.61;86.68;94929.19;4983484;28;19956;-51
2023/04/25 06:36:44;;;;;;;;;;;11.70;57.40;;;6.51;87.00;94931.78;4975469;28;19914;-50
2023/04/25 06:39:10;;;;;;;;;;;11.60;57.40;;;6.40;91.18;94949.44;4975599;28;19968;-50
2023/04/25 06:41:36;;;;;;;;;;;11.30;57.50;;;6.19;91.94;94946.63;4975219;28;19914;-52
2023/04/25 06:44:02;;;;;;;;;;;11.10;57.70;;;6.03;94.05;94944.91;4975278;28;19909;-49
2023/04/25 06:46:28;;;;;;;;;;;11.00;58.10;;;5.93;96.15;94948.25;4985190;28;20249;-49
2023/04/25 06:48:54;;;;;;;;;;;10.90;57.90;;;5.75;97.62;94946.72;4994359;28;19963;-49
2023/04/25 06:51:19;;;;;;;;;;;10.70;58.80;;;5.61;98.11;94944.72;4977291;28;19949;-50
2023/04/25 06:53:45;;;;;;;;;;;10.60;58.40;;;5.61;98.90;94936.78;4971466;28;19953;-56
2023/04/25 06:56:11;;;;;;;;;;;10.50;58.50;;;5.65;99.92;94940.56;4972532;28;19909;-49
2023/04/25 06:58:37;;;;;;;;;;;10.50;58.60;;;5.66;99.83;94940.28;4971158;28;20296;-49
2023/04/25 07:01:03;;;;;;;;;;;10.50;58.80;;;5.60;100.00;94943.94;4973493;28;19955;-51
2023/04/25 07:03:30;;;;;;;;;;;10.40;58.90;;;5.59;100.00;94931.78;4973598;28;19960;-49
2023/04/25 07:05:55;;;;;;;;;;;10.40;59.10;;;5.61;100.00;94942.91;4974981;28;19909;-49
2023/04/25 07:08:21;;;;;;;;;;;10.30;59.20;;;5.59;100.00;94942.34;4974842;28;19910;-52
2023/04/25 07:10:47;;;;;;;;;;;10.30;59.30;;;5.50;100.00;94939.34;4974070;28;20269;-52
2023/04/25 07:13:13;;;;;;;;;;;10.20;59.40;;;5.49;100.00;94940.38;4975117;28;20249;-49
2023/04/25 07:15:39;;;;;;;;;;;10.20;59.50;;;5.50;100.00;94941.19;4973120;28;19918;-50
2023/04/25 07:18:04;;;;;;;;;;;10.20;59.60;;;5.50;100.00;94943.81;4953859;28;19944;-50
2023/04/25 07:20:30;;;;;;;;;;;10.20;59.60;;;5.50;100.00;94941.19;4970284;28;19910;-51
2023/04/25 07:22:57;;;;;;;;;;;10.20;59.70;;;5.49;100.00;94942.25;4954391;28;20389;-52
2023/04/25 07:25:23;;;;;;;;;;;10.20;59.70;;;5.54;100.00;94940.44;4954929;28;19917;-49
2023/04/25 07:27:49;;;;;;;;;;;10.30;59.80;;;5.60;100.00;94945.78;4954043;28;19955;-51
2023/04/25 07:30:14;;;;;;;;;;;10.40;59.80;;;5.63;100.00;94948.72;4955305;28;19913;-49
2023/04/25 07:32:40;;;;;;;;;;;10.50;59.80;;;5.60;100.00;94949.22;4955295;28;20339;-51
2023/04/25 07:35:07;;;;;;;;;;;10.50;59.80;;;5.58;100.00;94953.97;4954270;28;19917;-52
2023/04/25 07:37:36;;;;;;;;;;;10.50;59.80;;;5.59;100.00;94952.13;4954020;28;20266;-49
2023/04/25 07:40:04;;;;;;;;;;;10.50;59.90;;;5.54;100.00;94955.50;4954415;28;19913;-50
2023/04/25 07:42:30;;;;;;;;;;;10.60;60.00;;;5.52;100.00;94960.25;4954748;28;20450;-51
2023/04/25 07:44:56;;;;;;;;;;;10.60;60.20;;;5.53;100.00;94959.97;4954928;28;19910;-53
2023/04/25 07:47:22;;;;;;;;;;;10.60;60.10;;;5.61;100.00;94969.31;4936347;28;20049;-51
2023/04/25 07:49:48;;;;;;;;;;;10.60;60.20;;;5.65;100.00;94970.41;4935772;29;19917;-52
2023/04/25 07:52:14;;;;;;;;;;;10.70;60.20;;;5.66;100.00;94979.13;4944096;28;19910;-49
2023/04/25 07:54:40;;;;;;;;;;;10.70;60.10;;;5.67;100.00;94970.97;4954770;28;20270;-49
2023/04/25 07:57:06;;;;;;;;;;;10.80;60.10;;;5.76;100.00;94974.75;4954136;28;19910;-55
2023/04/25 07:59:32;;;;;;;;;;;10.90;60.10;;;5.82;100.00;94972.97;4954510;28;19910;-51
2023/04/25 08:01:58;;;;;;;;;;;11.00;60.00;;;5.90;100.00;94971.72;4954540;28;19922;-53
2023/04/25 08:04:27;;;;;;;;;;;11.10;60.00;;;5.95;100.00;94977.88;4953508;28;19917;-49
2023/04/25 08:06:54;;;;;;;;;;;11.30;60.00;;;5.99;100.00;94973.69;4954612;28;19917;-49
2023/04/25 08:09:20;;;;;;;;;;;11.40;59.80;;;6.08;100.00;94978.50;4953552;28;20288;-55
2023/04/25 08:11:47;;;;;;;;;;;11.60;59.70;;;6.16;100.00;94978.06;4954582;28;19918;-53
2023/04/25 08:14:13;;;;;;;;;;;11.70;59.60;;;6.41;100.00;94986.22;4954526;28;19921;-50
2023/04/25 08:16:39;;;;;;;;;;;11.80;59.50;;;6.51;100.00;94990.00;4952069;28;20085;-50
2023/04/25 08:19:05;;;;;;;;;;;12.00;59.50;;;6.65;100.00;94991.97;4965598;28;20403;-49
2023/04/25 08:21:32;;;;;;;;;;;12.10;59.50;;;6.73;99.06;94996.78;4972511;28;19918;-51
2023/04/25 08:23:58;;;;;;;;;;;12.30;59.50;;;6.59;97.59;94998.28;4973903;28;19909;-49
2023/04/25 08:26:25;;;;;;;;;;;12.30;59.40;;;6.64;98.82;95008.09;4956397;28;19964;-53
2023/04/25 08:28:51;;;;;;;;;;;12.20;59.20;;;6.63;97.85;95017.88;4972131;28;19914;-51
2023/04/25 08:31:17;;;;;;;;;;;12.30;59.30;;;6.71;98.54;95012.13;4973544;28;20013;-50
2023/04/25 08:33:44;;;;;;;;;;;12.40;59.20;;;6.78;98.61;95019.84;4972408;28;20008;-52
2023/04/25 08:36:10;;;;;;;;;;;12.50;59.20;;;6.70;95.31;95020.31;4973225;28;19960;-49
2023/04/25 08:38:36;;;;;;;;;;;12.50;59.20;;;6.85;97.61;95022.28;4972949;28;20023;-50
2023/04/25 08:41:03;;;;;;;;;;;12.50;59.10;;;6.87;96.02;95028.13;4972721;28;20400;-51
2023/04/25 08:43:30;;;;;;;;;;;12.50;59.10;;;6.85;96.21;95033.66;4972983;28;19936;-50
2023/04/25 08:46:01;;;;;;;;;;;12.70;59.20;;;7.00;95.64;95037.47;4978289;28;20006;-51
2023/04/25 08:48:28;;;;;;;;;;;12.90;59.00;;;7.21;93.78;95030.44;4992521;28;19909;-52
2023/04/25 08:50:56;;;;;;;;;;;13.30;58.70;;;7.23;93.60;95036.28;4992500;28;19913;-51
2023/04/25 08:53:28;;;;;;;;;;;13.30;58.50;;;7.30;91.77;95039.50;4990905;28;19920;-51
2023/04/25 08:55:57;;;;;;;;;;;13.30;58.50;;;7.50;94.01;95052.88;4975056;28;19917;-56
2023/04/25 08:58:23;;;;;;;;;;;13.20;58.60;;;7.42;90.99;95045.38;4980483;28;19916;-53
2023/04/25 09:00:52;;;;;;;;;;;13.10;58.80;;;7.24;92.00;95051.94;4972980;28;19941;-52
2023/04/25 09:03:18;;;;;;;;;;;12.90;58.70;;;7.30;93.01;95066.81;4972699;28;20024;-53
2023/04/25 09:05:44;;;;;;;;;;;12.80;58.80;;;7.31;92.69;95067.59;4992172;28;20435;-51
2023/04/25 09:08:10;;;;;;;;;;;12.80;58.90;;;7.12;89.21;95061.91;4990936;28;19914;-55
2023/04/25 09:10:37;;;;;;;;;;;12.80;58.80;;;7.02;89.38;95065.31;4926813;28;29801;-55
2023/04/25 09:13:06;;;;;;;;;;;12.70;58.60;;;7.05;92.05;95080.69;4968615;28;19910;-52
2023/04/25 09:15:32;;;;;;;;;;;12.70;58.60;;;7.15;91.56;95080.75;4974329;28;20360;-52
2023/04/25 09:17:59;;;;;;;;;;;12.70;58.60;;;7.23;90.82;95087.41;4991944;28;20315;-50
2023/04/25 09:20:26;;;;;;;;;;;12.70;58.70;;;7.06;90.76;95087.56;4992106;28;19976;-54
2023/04/25 09:23:06;;;;;;;;;;;12.60;58.70;;;7.02;91.90;95096.25;4990672;28;20039;-54
2023/04/25 09:25:40;;;;;;;;;;;12.50;58.80;;;7.04;93.63;95110.06;4992125;28;19909;-54
2023/04/25 09:28:07;;;;;;;;;;;12.40;58.80;;;7.07;92.78;95099.75;4983918;28;19960;-53
2023/04/25 09:30:36;;;;;;;;;;;12.50;58.80;;;7.24;91.35;95093.50;4972953;28;19932;-53
2023/04/25 09:33:12;;;;;;;;;;;12.70;58.70;;;7.42;91.43;95106.34;4972518;28;19920;-53
2023/04/25 09:35:45;;;;;;;;;;;13.00;58.50;;;7.50;89.96;95102.44;4972414;28;19909;-53
2023/04/25 09:38:14;;;;;;;;;;;13.10;58.30;;;7.52;89.97;95113.56;4972793;28;19964;-52
2023/04/25 09:40:45;;;;;;;;;;;13.20;58.20;;;7.64;89.73;95112.28;4971330;28;19936;-50
2023/04/25 09:43:22;;;;;;;;;;;13.30;58.70;;;7.55;87.34;95113.84;4955331;28;20377;-56
2023/04/25 09:45:51;;;;;;;;;;;13.50;57.90;;;7.78;88.94;95119.81;4971911;28;19917;-51
2023/04/25 09:48:22;;;;;;;;;;;13.70;57.60;;;8.09;86.92;95112.78;4989627;28;20443;-54
2023/04/25 09:51:15;;;;;;;;;;;14.10;57.40;;;8.46;85.49;95119.81;4976597;28;19910;-51
2023/04/25 09:53:46;;;;;;;;;;;14.70;57.00;;;8.93;81.99;95111.66;4975250;28;19948;-54
2023/04/25 09:56:13;;;;;;;;;;;15.40;56.50;;;9.36;80.48;95114.81;4959672;28;19917;-56
2023/04/25 09:58:40;;;;;;;;;;;16.00;56.10;;;9.54;78.92;95118.78;4958290;28;19910;-55
2023/04/25 10:01:09;;;;;;;;;;;16.20;55.90;;;9.64;76.70;95118.75;4976374;28;19909;-50
2023/04/25 10:03:39;;;;;;;;;;;16.20;55.70;;;9.63;77.14;95121.69;4975403;28;19914;-52
2023/04/25 10:06:14;;;;;;;;;;;16.30;55.50;;;9.49;74.92;95127.59;4975168;28;19913;-53
2023/04/25 10:08:41;;;;;;;;;;;16.30;55.30;;;9.53;75.38;95132.34;4975008;28;20450;-54
2023/04/25 10:11:08;;;;;;;;;;;16.30;54.90;;;9.50;75.07;95133.69;4975154;28;19909;-52
2023/04/25 10:13:35;;;;;;;;;;;16.40;54.50;;;9.55;73.95;95130.22;4976127;28;20008;-55
2023/04/25 10:16:04;;;;;;;;;;;16.50;54.10;;;9.58;74.68;95125.16;4958030;28;20249;-55
2023/04/25 10:18:32;;;;;;;;;;;16.60;53.90;;;9.58;74.43;95127.81;4958294;28;20430;-54
2023/04/25 10:21:07;;;;;;;;;;;16.70;53.70;;;9.75;73.50;95127.53;4975971;28;19910;-55
2023/04/25 10:23:36;;;;;;;;;;;16.80;53.60;;;9.61;72.39;95135.25;4975326;28;19937;-55
2023/04/25 10:26:02;;;;;;;;;;;16.80;53.30;;;9.60;72.16;95130.22;4959091;28;20264;-51
2023/04/25 10:28:28;;;;;;;;;;;16.60;53.20;;;9.53;72.99;95141.13;4974701;28;19910;-53
2023/04/25 10:31:03;;;;;;;;;;;16.30;53.30;;;9.47;74.18;95143.00;4975911;28;19949;-56
2023/04/25 10:33:40;;;;;;;;;;;16.10;53.50;;;9.49;75.03;95140.88;4989834;28;19918;-53
2023/04/25 10:36:17;;;;;;;;;;;15.90;53.60;;;9.55;74.33;95138.19;4975789;28;19909;-53
2023/04/25 10:38:44;;;;;;;;;;;15.90;53.60;;;9.87;74.55;95141.31;4975708;28;19963;-56
2023/04/25 10:41:12;;;;;;;;;;;16.30;53.30;;;10.33;72.27;95137.72;4989993;28;19920;-53
2023/04/25 10:43:45;;;;;;;;;;;16.90;53.30;;;10.92;71.37;95131.53;4977188;28;19916;-53
2023/04/25 10:46:31;;;;;;;;;;;17.60;53.00;;;11.36;65.40;95143.97;4994111;28;19909;-56
2023/04/25 10:49:00;;;;;;;;;;;18.50;52.60;;;11.46;66.15;95143.09;4978010;28;20035;-56
2023/04/25 10:51:32;;;;;;;;;;;18.80;52.10;;;11.48;66.25;95148.97;4994198;28;19955;-57
2023/04/25 10:54:05;;;;;;;;;;;18.80;51.80;;;11.34;64.38;95149.63;4994989;28;19910;-51
2023/04/25 10:56:49;;;;;;;;;;;18.60;51.50;;;11.41;64.94;95149.28;4994131;28;19996;-52
2023/04/25 10:59:19;;;;;;;;;;;18.50;51.20;;;11.03;62.95;95149.06;4986645;28;19916;-51
2023/04/25 11:01:52;;;;;;;;;;;18.30;50.80;;;10.73;65.48;95158.03;4974931;28;19914;-50
2023/04/25 11:04:35;;;;;;;;;;;18.10;50.30;;;10.86;68.26;95161.94;4982851;28;20007;-52
2023/04/25 11:07:28;;;;;;;;;;;17.90;50.20;;;10.73;64.88;95155.34;4977960;28;19909;-52
2023/04/25 11:09:54;;;;;;;;;;;17.80;50.20;;;10.44;64.51;95157.91;4974176;28;19976;-54
2023/04/25 11:12:20;;;;;;;;;;;17.70;50.20;;;10.63;65.77;95158.88;4994464;28;19917;-51
2023/04/25 11:14:46;;;;;;;;;;;17.60;50.20;;;10.71;67.00;95157.50;4994389;28;19910;-52
2023/04/25 11:17:11;;;;;;;;;;;17.50;50.30;;;10.86;64.53;95162.72;4978166;28;20012;-54
2023/04/25 11:19:37;;;;;;;;;;;17.70;50.10;;;10.92;61.81;95155.50;4974079;28;19917;-51
2023/04/25 11:22:03;;;;;;;;;;;18.00;49.90;;;11.34;64.66;95152.28;4980042;28;19917;-51
2023/04/25 11:24:32;;;;;;;;;;;18.50;49.30;;;12.00;64.01;95153.56;4993412;28;20066;-54